Time;durP1;ratioP1;P1;durP2;ratioP2;P2;SDS_P1;SDS_P2;PMS_P1;PMS_P2;Temp;Humidity;BMP_temperature;BMP_pressure;BME280_temperature;BME280_humidity;BME280_pressure;Samples;Min_cycle;Max_cycle;Signal;HPM_P1;HPM_P2
2022/03/13 00:00:26;;;;;;;28.97;18.23;;;0.20;85.20;;;;;;5051637;28;20460;-74
2022/03/13 00:02:55;;;;;;;26.73;19.70;;;0.30;84.20;;;;;;5051611;28;20527;-74
2022/03/13 00:05:23;;;;;;;33.20;20.97;;;0.30;83.70;;;;;;5051479;28;20460;-74
2022/03/13 00:07:55;;;;;;;30.70;19.53;;;0.20;85.80;;;;;;5051663;28;20537;-73
2022/03/13 00:10:27;;;;;;;27.60;19.40;;;0.30;85.60;;;;;;5051489;28;20798;-73
2022/03/13 00:12:55;;;;;;;27.50;18.03;;;0.20;86.60;;;;;;5051180;28;20500;-74
2022/03/13 00:15:26;;;;;;;37.13;22.80;;;-0.10;89.70;;;;;;5051167;28;20467;-74
2022/03/13 00:17:59;;;;;;;34.73;23.20;;;0.00;89.70;;;;;;5051495;28;20462;-73
2022/03/13 00:20:27;;;;;;;35.23;21.40;;;0.10;90.90;;;;;;5051236;28;20450;-73
2022/03/13 00:22:55;;;;;;;43.03;23.30;;;0.00;91.70;;;;;;5051341;28;20809;-73
2022/03/13 00:25:22;;;;;;;43.37;24.43;;;-0.10;92.30;;;;;;5050781;28;20964;-74
2022/03/13 00:27:49;;;;;;;32.50;22.63;;;0.20;91.80;;;;;;5051084;28;20810;-74
2022/03/13 00:30:17;;;;;;;40.60;24.43;;;0.40;91.30;;;;;;5050938;28;20513;-75
2022/03/13 00:32:45;;;;;;;38.93;25.53;;;0.40;91.70;;;;;;5051163;28;20546;-74
2022/03/13 00:35:14;;;;;;;43.23;24.33;;;0.30;92.00;;;;;;5050959;28;20865;-74
2022/03/13 00:37:41;;;;;;;37.60;24.80;;;0.20;92.40;;;;;;5050992;28;20457;-74
2022/03/13 00:40:10;;;;;;;43.17;26.07;;;0.20;92.50;;;;;;5050796;28;20863;-74
2022/03/13 00:42:38;;;;;;;45.93;26.23;;;-0.10;92.80;;;;;;5050569;28;20956;-76
2022/03/13 00:45:05;;;;;;;42.93;25.20;;;-0.50;95.10;;;;;;5050993;28;20570;-74
2022/03/13 00:47:33;;;;;;;42.80;26.57;;;-0.40;95.40;;;;;;5051143;28;20478;-74
2022/03/13 00:50:00;;;;;;;44.80;27.33;;;-0.30;95.60;;;;;;5051185;28;20972;-74
2022/03/13 00:52:28;;;;;;;45.57;25.90;;;-0.40;96.30;;;;;;5051202;28;20458;-74
2022/03/13 00:54:55;;;;;;;37.23;25.23;;;-0.60;96.80;;;;;;5050560;28;20934;-74
2022/03/13 00:57:22;;;;;;;41.50;27.33;;;-0.20;94.90;;;;;;5050853;28;20469;-73
2022/03/13 00:59:49;;;;;;;42.73;26.80;;;0.20;93.20;;;;;;5050353;28;20453;-73
2022/03/13 01:02:17;;;;;;;40.40;27.30;;;0.30;92.50;;;;;;5050702;28;20450;-74
2022/03/13 01:04:44;;;;;;;37.90;25.33;;;0.30;92.00;;;;;;5050459;28;20956;-74
2022/03/13 01:07:13;;;;;;;39.83;23.80;;;0.10;93.20;;;;;;5050223;28;20838;-73
2022/03/13 01:09:42;;;;;;;30.53;22.27;;;0.10;93.70;;;;;;5050104;28;20485;-74
2022/03/13 01:12:10;;;;;;;36.13;23.50;;;0.10;93.80;;;;;;5050419;28;20450;-75
2022/03/13 01:14:37;;;;;;;32.43;20.57;;;0.10;93.30;;;;;;5050209;28;20460;-74
2022/03/13 01:17:06;;;;;;;29.23;20.60;;;0.10;92.60;;;;;;5050309;28;20474;-74
2022/03/13 01:19:33;;;;;;;31.23;20.93;;;0.00;92.20;;;;;;5049866;28;20454;-74
2022/03/13 01:22:01;;;;;;;30.07;19.67;;;-0.20;92.70;;;;;;5049788;28;20458;-74
2022/03/13 01:24:31;;;;;;;32.93;20.90;;;-0.20;93.10;;;;;;5049510;28;20486;-74
2022/03/13 01:27:02;;;;;;;32.33;20.37;;;-0.10;92.90;;;;;;5049785;28;20538;-74
2022/03/13 01:29:30;;;;;;;27.23;18.63;;;-0.10;92.00;;;;;;5049926;28;20485;-74
2022/03/13 01:31:58;;;;;;;39.27;21.50;;;0.00;91.90;;;;;;5050012;28;21015;-74
2022/03/13 01:34:48;;;;;;;36.30;21.47;;;-0.10;91.70;;;;;;5049579;28;21007;-74
2022/03/13 01:37:20;;;;;;;38.30;23.57;;;0.00;91.30;;;;;;5049758;28;20478;-75
2022/03/13 01:39:49;;;;;;;40.63;24.60;;;-0.10;91.50;;;;;;5050160;28;20870;-74
2022/03/13 01:42:17;;;;;;;38.47;24.63;;;-0.10;91.30;;;;;;5050093;28;20981;-74
2022/03/13 01:44:45;;;;;;;36.37;24.90;;;-0.10;91.10;;;;;;5049687;28;20457;-74
2022/03/13 01:47:13;;;;;;;36.20;23.23;;;-0.30;92.00;;;;;;5049418;28;21040;-75
2022/03/13 01:49:40;;;;;;;33.43;20.57;;;-0.30;92.20;;;;;;5049609;28;20458;-74
2022/03/13 01:52:07;;;;;;;26.03;17.00;;;-0.30;91.40;;;;;;5049938;28;20997;-73
2022/03/13 01:54:34;;;;;;;22.37;16.07;;;-0.20;90.40;;;;;;5049591;28;20454;-74
2022/03/13 01:57:02;;;;;;;31.93;19.33;;;-0.20;89.80;;;;;;5049003;28;20481;-74
2022/03/13 01:59:31;;;;;;;31.17;18.83;;;-0.20;90.10;;;;;;5049412;28;20458;-75
2022/03/13 02:01:58;;;;;;;30.07;18.17;;;-0.30;90.40;;;;;;5049529;28;20457;-75
2022/03/13 02:04:30;;;;;;;28.10;16.33;;;-0.30;89.50;;;;;;5049431;28;20461;-74
2022/03/13 02:06:58;;;;;;;28.90;17.20;;;-0.20;88.90;;;;;;5048599;28;20473;-75
2022/03/13 02:09:26;;;;;;;26.50;17.47;;;-0.20;89.40;;;;;;5049755;28;20510;-74
2022/03/13 02:11:55;;;;;;;30.40;16.00;;;-0.30;89.80;;;;;;5049223;28;20450;-75
2022/03/13 02:14:24;;;;;;;28.70;18.70;;;-0.50;90.70;;;;;;5049332;28;20497;-74
2022/03/13 02:16:53;;;;;;;36.33;19.80;;;-0.50;90.80;;;;;;5049218;28;20481;-75
2022/03/13 02:19:21;;;;;;;36.47;21.27;;;-0.50;91.40;;;;;;5049456;28;20462;-74
2022/03/13 02:21:52;;;;;;;34.73;21.93;;;-0.50;91.40;;;;;;5049328;28;20461;-74
2022/03/13 02:24:25;;;;;;;30.77;20.60;;;-0.50;91.90;;;;;;5048938;28;20576;-75
2022/03/13 02:27:00;;;;;;;30.90;18.33;;;-0.50;91.80;;;;;;5049345;28;20535;-74
2022/03/13 02:29:28;;;;;;;34.13;21.10;;;-0.40;91.10;;;;;;5049203;28;21012;-75
2022/03/13 02:31:56;;;;;;;29.50;19.67;;;-0.40;91.30;;;;;;5049193;28;20895;-74
2022/03/13 02:34:24;;;;;;;24.63;16.77;;;-0.30;91.10;;;;;;5049118;28;20465;-73
2022/03/13 02:37:05;;;;;;;22.23;15.83;;;-0.20;90.00;;;;;;5048886;28;20478;-75
2022/03/13 02:39:38;;;;;;;23.30;16.00;;;-0.20;89.60;;;;;;5049127;28;20454;-74
2022/03/13 02:42:07;;;;;;;27.47;15.80;;;-0.20;89.50;;;;;;5049144;28;20473;-75
2022/03/13 02:44:35;;;;;;;27.87;17.50;;;-0.20;88.60;;;;;;5049085;28;20457;-74
2022/03/13 02:47:05;;;;;;;24.83;15.37;;;-0.20;88.70;;;;;;5048978;28;20481;-75
2022/03/13 02:49:34;;;;;;;24.50;14.83;;;-0.30;90.10;;;;;;5048874;28;20462;-74
2022/03/13 02:52:04;;;;;;;29.77;15.13;;;-0.40;90.80;;;;;;5048847;28;20482;-74
2022/03/13 02:54:32;;;;;;;19.50;12.20;;;-0.50;90.60;;;;;;5048953;28;20472;-75
2022/03/13 02:57:01;;;;;;;17.83;11.00;;;-0.60;90.80;;;;;;5049086;28;20469;-74
2022/03/13 02:59:29;;;;;;;18.97;11.43;;;-0.40;89.60;;;;;;5049041;28;20461;-73
2022/03/13 03:01:57;;;;;;;19.33;10.93;;;-0.40;89.20;;;;;;5048730;28;20457;-74
2022/03/13 03:04:25;;;;;;;16.57;8.77;;;-0.20;87.40;;;;;;5049043;28;20523;-75
2022/03/13 03:06:56;;;;;;;12.60;7.53;;;-0.30;86.30;;;;;;5049131;28;20571;-75
2022/03/13 03:09:24;;;;;;;13.97;8.27;;;-0.20;83.60;;;;;;5049095;28;20545;-73
2022/03/13 03:11:51;;;;;;;13.97;7.17;;;-0.20;81.70;;;;;;5048986;28;20858;-74
2022/03/13 03:14:21;;;;;;;12.53;7.33;;;-0.30;81.80;;;;;;5049065;28;20458;-77
2022/03/13 03:16:48;;;;;;;11.00;7.03;;;-0.40;82.10;;;;;;5049402;28;20556;-74
2022/03/13 03:19:15;;;;;;;13.50;7.47;;;-0.60;83.10;;;;;;5052404;28;20507;-74
2022/03/13 03:21:43;;;;;;;12.70;8.00;;;-0.90;84.20;;;;;;5052508;28;20445;-76
2022/03/13 03:24:18;;;;;;;14.87;8.90;;;-0.80;84.10;;;;;;5052283;28;20458;-72
2022/03/13 03:26:46;;;;;;;13.00;9.00;;;-0.80;85.60;;;;;;5052252;28;20457;-75
2022/03/13 03:29:13;;;;;;;12.60;9.20;;;-0.80;86.10;;;;;;5052313;28;20454;-75
2022/03/13 03:31:44;;;;;;;14.50;9.93;;;-0.80;86.00;;;;;;5052127;28;20516;-75
2022/03/13 03:34:12;;;;;;;15.93;10.60;;;-1.10;89.10;;;;;;5052338;28;20453;-76
2022/03/13 03:36:42;;;;;;;23.60;14.27;;;-1.20;90.40;;;;;;5052484;28;20464;-75
2022/03/13 03:39:10;;;;;;;14.47;10.43;;;-0.90;90.40;;;;;;5052233;28;20446;-75
2022/03/13 03:41:37;;;;;;;23.73;11.33;;;-0.80;90.30;;;;;;5051772;28;20454;-74
2022/03/13 03:44:05;;;;;;;20.60;11.83;;;-0.80;89.80;;;;;;5051859;28;20454;-73
2022/03/13 03:46:33;;;;;;;21.20;12.30;;;-0.90;90.20;;;;;;5052123;28;20461;-74
2022/03/13 03:49:02;;;;;;;19.00;11.63;;;-0.90;91.10;;;;;;5052336;28;20457;-73
2022/03/13 03:51:29;;;;;;;18.00;11.90;;;-1.00;91.30;;;;;;5052016;28;20493;-74
2022/03/13 03:53:56;;;;;;;17.20;10.53;;;-0.90;90.90;;;;;;5051915;28;20847;-74
2022/03/13 03:56:23;;;;;;;17.63;11.20;;;-0.80;91.00;;;;;;5051907;28;20451;-74
2022/03/13 03:58:50;;;;;;;19.63;9.43;;;-0.70;90.20;;;;;;5051814;28;20450;-75
2022/03/13 04:01:17;;;;;;;17.23;10.50;;;-0.70;89.30;;;;;;5051748;28;20863;-74
2022/03/13 04:03:45;;;;;;;17.20;9.83;;;-0.80;89.40;;;;;;5051822;28;20477;-75
2022/03/13 04:06:14;;;;;;;12.63;9.23;;;-0.70;88.10;;;;;;5051592;28;20841;-75
2022/03/13 04:08:41;;;;;;;26.70;14.00;;;-0.60;87.60;;;;;;5051269;28;20469;-74
2022/03/13 04:11:08;;;;;;;28.40;16.73;;;-1.00;90.40;;;;;;5051361;28;20500;-75
2022/03/13 04:13:38;;;;;;;32.90;18.80;;;-1.20;92.80;;;;;;5051371;28;20473;-74
2022/03/13 04:16:08;;;;;;;35.87;19.67;;;-1.20;94.50;;;;;;5051478;28;20851;-74
2022/03/13 04:18:37;;;;;;;28.27;18.20;;;-1.20;94.80;;;;;;5051480;28;20870;-75
2022/03/13 04:21:06;;;;;;;31.17;18.60;;;-1.10;94.30;;;;;;5051077;28;20441;-73
2022/03/13 04:23:36;;;;;;;28.00;17.97;;;-1.00;94.90;;;;;;5051278;28;21202;-73
2022/03/13 04:26:04;;;;;;;31.40;20.67;;;-1.10;94.60;;;;;;5051194;28;20497;-73
2022/03/13 04:28:32;;;;;;;31.70;20.40;;;-1.00;94.80;;;;;;5050592;28;21012;-74
2022/03/13 04:30:59;;;;;;;33.20;20.07;;;-1.10;95.20;;;;;;5051007;28;20489;-74
2022/03/13 04:33:28;;;;;;;31.43;17.90;;;-1.40;96.50;;;;;;5050954;28;20465;-74
2022/03/13 04:36:03;;;;;;;30.33;19.50;;;-1.40;96.70;;;;;;5050765;28;20477;-73
2022/03/13 04:38:30;;;;;;;30.77;20.77;;;-1.40;96.20;;;;;;5051211;28;20520;-75
2022/03/13 04:40:59;;;;;;;26.57;16.67;;;-1.60;98.40;;;;;;5050737;28;20468;-74
2022/03/13 04:43:26;;;;;;;30.50;18.03;;;-1.80;99.60;;;;;;5050835;28;20474;-76
2022/03/13 04:45:54;;;;;;;27.00;16.27;;;-1.70;99.90;;;;;;5051187;28;20480;-76
2022/03/13 04:48:21;;;;;;;22.00;15.23;;;-1.60;99.90;;;;;;5050840;28;20783;-77
2022/03/13 04:50:49;;;;;;;26.70;16.97;;;-1.30;99.90;;;;;;5050615;28;20984;-77
2022/03/13 04:53:16;;;;;;;27.27;15.20;;;-1.30;99.60;;;;;;5050991;28;20457;-77
2022/03/13 04:55:44;;;;;;;22.90;15.20;;;-1.40;99.60;;;;;;5050336;28;20576;-75
2022/03/13 04:58:12;;;;;;;22.40;15.60;;;-1.50;99.90;;;;;;5050697;28;20458;-78
2022/03/13 05:00:39;;;;;;;26.60;14.20;;;-1.50;99.90;;;;;;5050593;28;20465;-77
2022/03/13 05:03:10;;;;;;;20.40;13.50;;;-1.40;99.90;;;;;;5050896;28;20446;-74
2022/03/13 05:05:37;;;;;;;19.43;13.37;;;-1.30;99.80;;;;;;5050406;28;20560;-74
2022/03/13 05:08:05;;;;;;;19.20;13.33;;;-0.80;97.40;;;;;;5050438;28;20450;-73
2022/03/13 05:10:37;;;;;;;21.40;13.10;;;-1.10;97.50;;;;;;5050353;28;20553;-74
2022/03/13 05:13:06;;;;;;;25.80;14.17;;;-1.40;99.00;;;;;;5050497;28;20464;-73
2022/03/13 05:15:36;;;;;;;24.93;13.07;;;-1.30;99.70;;;;;;5050255;28;20555;-73
2022/03/13 05:18:03;;;;;;;22.33;13.30;;;-1.20;99.50;;;;;;5049923;28;20456;-73
2022/03/13 05:20:35;;;;;;;20.73;14.27;;;-0.90;97.70;;;;;;5050284;28;20461;-73
2022/03/13 05:23:03;;;;;;;27.27;15.53;;;-0.70;96.60;;;;;;5049991;28;20613;-70
2022/03/13 05:25:32;;;;;;;21.10;14.47;;;-0.60;95.30;;;;;;5049327;28;20628;-67
2022/03/13 05:27:59;;;;;;;22.60;14.30;;;-0.40;94.50;;;;;;5049792;28;20867;-67
2022/03/13 05:30:27;;;;;;;22.67;14.50;;;-0.30;93.50;;;;;;5049880;28;20457;-67
2022/03/13 05:32:55;;;;;;;23.70;14.80;;;-0.30;92.30;;;;;;5049910;28;20493;-68
2022/03/13 05:35:23;;;;;;;23.00;13.77;;;-0.40;92.70;;;;;;5049882;28;20464;-68
2022/03/13 05:37:50;;;;;;;19.03;13.37;;;-0.50;93.20;;;;;;5050079;28;20461;-68
2022/03/13 05:40:19;;;;;;;22.97;13.80;;;-0.50;92.60;;;;;;5049154;28;20472;-66
2022/03/13 05:42:49;;;;;;;25.67;15.50;;;-0.50;92.90;;;;;;5049651;28;20446;-68
2022/03/13 05:45:19;;;;;;;25.37;14.37;;;-0.30;92.90;;;;;;5049782;28;20553;-69
2022/03/13 05:47:48;;;;;;;22.17;15.13;;;-0.40;93.60;;;;;;5049596;28;20453;-73
2022/03/13 05:50:18;;;;;;;20.53;12.97;;;-0.30;93.70;;;;;;5049681;28;20457;-72
2022/03/13 05:52:46;;;;;;;20.60;14.20;;;-0.20;93.60;;;;;;5049033;28;20985;-69
2022/03/13 05:55:14;;;;;;;24.97;14.13;;;0.00;92.60;;;;;;5049439;28;20482;-74
2022/03/13 05:57:42;;;;;;;20.50;13.07;;;0.20;92.70;;;;;;5049671;28;20519;-71
2022/03/13 06:00:12;;;;;;;18.63;14.10;;;0.30;91.70;;;;;;5049383;28;20454;-72
2022/03/13 06:02:40;;;;;;;19.07;13.37;;;0.50;90.70;;;;;;5049413;28;20473;-70
2022/03/13 06:05:10;;;;;;;19.03;13.07;;;0.70;88.90;;;;;;5049678;28;20537;-70
2022/03/13 06:07:39;;;;;;;18.80;14.13;;;0.70;87.40;;;;;;5049692;28;20453;-77
2022/03/13 06:10:08;;;;;;;24.83;14.97;;;0.70;87.50;;;;;;5049884;28;20457;-72
2022/03/13 06:12:36;;;;;;;20.80;13.87;;;0.60;89.00;;;;;;5049470;28;20482;-67
2022/03/13 06:15:05;;;;;;;19.20;12.73;;;0.60;88.70;;;;;;5049562;28;20941;-70
2022/03/13 06:17:32;;;;;;;18.00;12.57;;;0.70;89.60;;;;;;5049145;28;20524;-70
2022/03/13 06:20:00;;;;;;;19.33;13.27;;;0.50;88.60;;;;;;5048984;28;20461;-71
2022/03/13 06:22:27;;;;;;;19.60;13.60;;;0.60;89.70;;;;;;5049705;28;20442;-70
2022/03/13 06:24:55;;;;;;;21.80;13.40;;;0.60;89.70;;;;;;5049018;28;20494;-71
2022/03/13 06:27:22;;;;;;;22.37;13.37;;;0.70;88.80;;;;;;5049242;28;20473;-70
2022/03/13 06:29:49;;;;;;;18.03;13.67;;;0.80;88.10;;;;;;5049367;28;20457;-72
2022/03/13 06:32:18;;;;;;;20.87;14.03;;;1.00;87.40;;;;;;5049252;28;20489;-71
2022/03/13 06:34:45;;;;;;;19.67;13.60;;;1.10;87.00;;;;;;5049295;28;20446;-71
2022/03/13 06:37:13;;;;;;;21.77;14.73;;;1.20;86.20;;;;;;5048998;28;20547;-73
2022/03/13 06:39:40;;;;;;;27.57;15.67;;;1.40;86.60;;;;;;5048859;28;20524;-71
2022/03/13 06:42:09;;;;;;;23.10;15.67;;;1.50;85.80;;;;;;5049207;28;20544;-70
2022/03/13 06:44:36;;;;;;;23.17;15.70;;;1.70;85.10;;;;;;5049273;28;20880;-70
2022/03/13 06:47:04;;;;;;;23.93;15.20;;;1.60;85.10;;;;;;5048787;28;20481;-70
2022/03/13 06:49:31;;;;;;;24.50;14.80;;;1.60;86.40;;;;;;5049165;28;20449;-70
2022/03/13 06:51:58;;;;;;;20.50;14.17;;;1.70;85.00;;;;;;5049450;28;20872;-69
2022/03/13 06:54:26;;;;;;;21.00;14.67;;;1.80;84.90;;;;;;5052903;28;20457;-71
2022/03/13 06:56:53;;;;;;;19.70;14.37;;;2.00;81.10;;;;;;5052868;28;20489;-71
2022/03/13 06:59:22;;;;;;;24.10;15.80;;;2.00;81.60;;;;;;5052907;28;20523;-72
2022/03/13 07:01:49;;;;;;;21.43;13.13;;;2.20;79.50;;;;;;5052658;28;20449;-71
2022/03/13 07:04:16;;;;;;;24.73;15.00;;;2.20;79.60;;;;;;5052627;28;20511;-71
2022/03/13 07:06:43;;;;;;;23.80;15.27;;;2.30;81.30;;;;;;5052688;28;20623;-71
2022/03/13 07:09:10;;;;;;;27.40;17.17;;;2.40;81.10;;;;;;5052618;28;20468;-70
2022/03/13 07:11:39;;;;;;;24.33;15.47;;;2.70;80.80;;;;;;5052472;28;20485;-70
2022/03/13 07:14:08;;;;;;;20.80;14.53;;;2.80;78.30;;;;;;5052638;28;20874;-71
2022/03/13 07:16:37;;;;;;;23.00;15.37;;;2.60;76.60;;;;;;5052536;28;20560;-70
2022/03/13 07:19:04;;;;;;;27.43;16.67;;;2.70;76.00;;;;;;5052576;28;20461;-70
2022/03/13 07:21:31;;;;;;;24.80;15.67;;;2.70;74.70;;;;;;5052505;28;20469;-71
2022/03/13 07:23:58;;;;;;;23.77;15.60;;;2.80;76.60;;;;;;5052218;28;20830;-70
2022/03/13 07:26:25;;;;;;;24.73;15.63;;;3.00;76.00;;;;;;5052329;28;20469;-70
2022/03/13 07:28:53;;;;;;;20.77;15.67;;;3.20;75.60;;;;;;5052059;28;20457;-71
2022/03/13 07:31:20;;;;;;;24.50;15.77;;;3.30;75.70;;;;;;5052192;28;20519;-70
2022/03/13 07:33:49;;;;;;;19.43;15.40;;;3.40;77.20;;;;;;5052187;28;20457;-72
2022/03/13 07:36:16;;;;;;;27.13;16.10;;;3.60;76.50;;;;;;5052273;28;20548;-71
2022/03/13 07:38:43;;;;;;;23.50;15.60;;;3.70;73.30;;;;;;5052219;28;20489;-71
2022/03/13 07:41:11;;;;;;;23.30;15.57;;;3.70;74.20;;;;;;5051828;28;20537;-72
2022/03/13 07:43:38;;;;;;;22.23;17.40;;;3.90;73.70;;;;;;5052056;28;20457;-71
2022/03/13 07:46:05;;;;;;;28.17;16.20;;;4.10;73.40;;;;;;5033759;28;20814;-70
2022/03/13 07:48:34;;;;;;;19.93;14.83;;;4.30;72.40;;;;;;5052101;28;20453;-74
2022/03/13 07:51:03;;;;;;;17.97;13.03;;;4.60;70.80;;;;;;5052178;28;20458;-74
2022/03/13 07:53:30;;;;;;;18.70;12.93;;;4.80;70.00;;;;;;5051991;28;21128;-72
2022/03/13 07:55:57;;;;;;;21.93;14.07;;;5.00;65.30;;;;;;5051614;28;20481;-73
2022/03/13 07:58:24;;;;;;;24.10;14.00;;;4.80;66.50;;;;;;5051901;28;20524;-74
2022/03/13 08:00:51;;;;;;;20.50;15.93;;;4.70;64.50;;;;;;5051517;28;20542;-73
2022/03/13 08:03:35;;;;;;;20.03;12.20;;;4.60;66.10;;;;;;5051096;28;20468;-73
2022/03/13 08:06:04;;;;;;;29.07;14.03;;;4.70;66.10;;;;;;5051749;28;20482;-72
2022/03/13 08:08:31;;;;;;;20.37;12.23;;;5.00;65.10;;;;;;5051609;28;20454;-73
2022/03/13 08:10:59;;;;;;;21.20;14.60;;;5.10;65.00;;;;;;5051220;28;20450;-72
2022/03/13 08:13:26;;;;;;;19.33;13.63;;;5.30;65.10;;;;;;5051382;28;20493;-72
2022/03/13 08:15:53;;;;;;;24.33;15.33;;;5.60;62.00;;;;;;5051064;28;20474;-75
2022/03/13 08:18:20;;;;;;;19.97;12.50;;;5.80;60.50;;;;;;5051341;28;20458;-72
2022/03/13 08:20:47;;;;;;;18.70;13.33;;;5.90;61.90;;;;;;5051070;28;20953;-77
2022/03/13 08:23:16;;;;;;;19.43;13.80;;;6.00;60.10;;;;;;5051079;28;20994;-72
2022/03/13 08:25:43;;;;;;;20.30;13.67;;;6.00;60.40;;;;;;5050844;28;21010;-73
2022/03/13 08:28:10;;;;;;;19.20;13.77;;;6.10;62.80;;;;;;5051216;28;20880;-75
2022/03/13 08:30:38;;;;;;;18.80;13.30;;;6.20;62.40;;;;;;5051327;28;20454;-73
2022/03/13 08:33:06;;;;;;;28.43;14.90;;;6.10;59.30;;;;;;5051000;28;20516;-72
2022/03/13 08:35:33;;;;;;;20.50;14.27;;;6.30;59.10;;;;;;5050899;28;20519;-71
2022/03/13 08:38:00;;;;;;;20.67;14.90;;;6.50;59.40;;;;;;5050950;28;20469;-72
2022/03/13 08:40:29;;;;;;;19.77;15.03;;;6.80;57.40;;;;;;5051068;28;20445;-71
2022/03/13 08:42:57;;;;;;;20.00;14.73;;;6.80;58.30;;;;;;5050819;28;20462;-70
2022/03/13 08:45:24;;;;;;;25.50;16.00;;;6.90;57.40;;;;;;5050632;28;20496;-73
2022/03/13 08:47:51;;;;;;;22.80;16.50;;;6.90;57.60;;;;;;5050752;28;20787;-72
2022/03/13 08:50:19;;;;;;;28.23;16.10;;;6.90;57.10;;;;;;5050702;28;20868;-73
2022/03/13 08:52:46;;;;;;;26.07;16.50;;;6.80;54.60;;;;;;5050534;28;20486;-73
2022/03/13 08:55:16;;;;;;;22.13;15.77;;;6.80;54.70;;;;;;5050784;28;20468;-73
2022/03/13 08:57:46;;;;;;;24.87;16.57;;;6.80;54.60;;;;;;5050774;28;20847;-72
2022/03/13 09:00:18;;;;;;;26.60;16.40;;;7.00;56.60;;;;;;5050755;28;20458;-71
2022/03/13 09:02:46;;;;;;;21.87;15.30;;;7.20;56.80;;;;;;5050214;28;20873;-72
2022/03/13 09:05:13;;;;;;;28.40;18.00;;;7.20;57.50;;;;;;5050115;28;20458;-76
2022/03/13 09:07:40;;;;;;;26.43;17.40;;;7.40;55.80;;;;;;5050517;28;20450;-78
2022/03/13 09:10:08;;;;;;;23.03;17.40;;;7.40;57.30;;;;;;5050732;28;20942;-71
2022/03/13 09:12:37;;;;;;;24.60;17.90;;;7.50;56.20;;;;;;5050359;28;20492;-73
2022/03/13 09:15:07;;;;;;;25.17;17.77;;;7.50;58.10;;;;;;5061888;28;20454;-78
2022/03/13 09:17:35;;;;;;;23.80;17.43;;;8.10;55.90;;;;;;5060914;28;20474;-72
2022/03/13 09:20:03;;;;;;;25.90;17.30;;;8.20;53.90;;;;;;5050131;28;20541;-72
2022/03/13 09:22:30;;;;;;;24.07;18.77;;;8.30;54.00;;;;;;5050002;28;20453;-76
2022/03/13 09:24:58;;;;;;;25.30;18.70;;;8.20;54.80;;;;;;5050046;28;20586;-78
2022/03/13 09:27:26;;;;;;;32.60;19.60;;;8.20;54.00;;;;;;5050623;28;20982;-78
2022/03/13 09:29:54;;;;;;;28.23;20.17;;;8.10;54.60;;;;;;5050175;28;20457;-78
2022/03/13 09:32:23;;;;;;;33.50;22.00;;;8.10;53.80;;;;;;5049982;28;20494;-73
2022/03/13 09:34:50;;;;;;;27.30;20.57;;;8.00;53.80;;;;;;5049775;28;20486;-72
2022/03/13 09:37:17;;;;;;;23.93;19.20;;;8.30;52.10;;;;;;5049687;28;20486;-73
2022/03/13 09:39:44;;;;;;;32.23;21.63;;;8.60;52.10;;;;;;5049732;28;20476;-72
2022/03/13 09:42:11;;;;;;;27.47;21.47;;;8.50;54.70;;;;;;5049735;28;20457;-72
2022/03/13 09:44:38;;;;;;;25.57;21.30;;;8.60;54.40;;;;;;5049552;28;20454;-71
2022/03/13 09:47:06;;;;;;;33.57;20.00;;;8.60;54.60;;;;;;5049454;28;20875;-75
2022/03/13 09:49:35;;;;;;;27.30;18.50;;;8.80;54.10;;;;;;5049596;28;20903;-74
2022/03/13 09:52:03;;;;;;;25.50;18.33;;;9.40;52.50;;;;;;5049659;28;20458;-74
2022/03/13 09:54:30;;;;;;;25.83;20.70;;;9.80;50.00;;;;;;5049568;28;20465;-73
2022/03/13 09:56:57;;;;;;;29.43;20.27;;;10.10;48.40;;;;;;5049178;28;20485;-73
2022/03/13 09:59:24;;;;;;;26.77;19.63;;;10.20;46.60;;;;;;5049510;28;20572;-73
2022/03/13 10:01:51;;;;;;;26.87;20.47;;;10.20;46.80;;;;;;5049572;28;20811;-73
2022/03/13 10:04:18;;;;;;;36.07;22.87;;;10.30;47.20;;;;;;5049736;28;20453;-72
2022/03/13 10:07:04;;;;;;;29.00;21.60;;;10.50;47.20;;;;;;5049423;28;20473;-73
2022/03/13 10:09:33;;;;;;;26.40;19.80;;;10.80;44.90;;;;;;5049501;28;20468;-71
2022/03/13 10:12:08;;;;;;;22.93;18.60;;;10.90;45.00;;;;;;5049645;28;20489;-73
2022/03/13 10:14:38;;;;;;;27.10;20.07;;;11.10;44.70;;;;;;5049208;28;20942;-74
2022/03/13 10:17:07;;;;;;;25.47;18.90;;;10.90;43.80;;;;;;5049431;28;20477;-75
2022/03/13 10:19:34;;;;;;;28.40;18.60;;;10.70;44.80;;;;;;5049087;28;20595;-75
2022/03/13 10:22:07;;;;;;;28.50;22.60;;;10.60;45.10;;;;;;5049298;28;20457;-74
2022/03/13 10:24:42;;;;;;;28.77;20.50;;;10.40;45.60;;;;;;5048529;28;20572;-74
2022/03/13 10:27:12;;;;;;;27.03;20.70;;;10.20;46.00;;;;;;5050222;28;20555;-68
2022/03/13 10:29:39;;;;;;;26.27;21.77;;;10.10;44.80;;;;;;5053434;28;20729;-68
2022/03/13 10:32:07;;;;;;;31.80;23.40;;;9.90;45.60;;;;;;5053412;28;20995;-68
2022/03/13 10:34:34;;;;;;;32.07;23.90;;;10.00;45.60;;;;;;5053365;28;20484;-67
2022/03/13 10:37:02;;;;;;;31.03;21.60;;;10.00;47.10;;;;;;5053333;28;20501;-67
2022/03/13 10:39:33;;;;;;;26.93;22.13;;;10.20;45.70;;;;;;5052725;28;20450;-68
2022/03/13 10:42:01;;;;;;;31.90;22.30;;;10.30;46.00;;;;;;5052755;28;20956;-67
2022/03/13 10:44:34;;;;;;;30.33;22.50;;;10.30;45.30;;;;;;5053110;28;20938;-67
2022/03/13 10:47:04;;;;;;;35.93;23.67;;;10.40;45.70;;;;;;5052637;28;20509;-67
2022/03/13 10:49:41;;;;;;;32.20;23.00;;;10.50;45.00;;;;;;5053018;28;20454;-68
2022/03/13 10:52:29;;;;;;;39.03;24.47;;;10.50;45.30;;;;;;5053077;28;20607;-68
2022/03/13 10:55:16;;;;;;;29.00;22.50;;;10.40;45.90;;;;;;5052952;28;20548;-68
2022/03/13 10:57:48;;;;;;;33.43;23.90;;;10.20;44.10;;;;;;5052707;28;20492;-68
2022/03/13 11:00:17;;;;;;;31.90;24.30;;;10.20;44.90;;;;;;5052164;28;20545;-68
2022/03/13 11:02:44;;;;;;;28.90;22.50;;;9.70;46.60;;;;;;5052891;28;20478;-67
2022/03/13 11:05:11;;;;;;;27.53;20.23;;;9.70;47.40;;;;;;5052607;28;20780;-67
2022/03/13 11:07:38;;;;;;;34.20;22.10;;;9.80;44.70;;;;;;5052242;28;20454;-68
2022/03/13 11:10:11;;;;;;;25.80;21.47;;;9.80;44.60;;;;;;5052710;28;20502;-67
2022/03/13 11:12:39;;;;;;;29.53;20.30;;;9.80;44.60;;;;;;5052588;28;20908;-68
2022/03/13 11:15:08;;;;;;;26.93;21.07;;;9.50;43.70;;;;;;5052700;28;20934;-70
2022/03/13 11:17:38;;;;;;;28.17;20.03;;;9.50;42.90;;;;;;5052634;28;20501;-67
2022/03/13 11:20:09;;;;;;;23.97;18.23;;;9.40;43.60;;;;;;5052136;28;20457;-72
2022/03/13 11:22:37;;;;;;;20.80;12.67;;;9.40;43.20;;;;;;5052245;28;20554;-73
2022/03/13 11:25:12;;;;;;;20.40;12.73;;;9.10;42.30;;;;;;5051910;28;20486;-66
2022/03/13 11:27:41;;;;;;;19.73;12.10;;;9.20;39.50;;;;;;5052438;28;20506;-73
2022/03/13 11:30:13;;;;;;;24.73;14.73;;;9.10;39.30;;;;;;5052260;28;20458;-73
2022/03/13 11:32:46;;;;;;;17.13;12.40;;;9.00;41.00;;;;;;5051829;28;20461;-72
2022/03/13 11:35:21;;;;;;;19.83;12.50;;;9.10;41.10;;;;;;5051711;28;20532;-71
2022/03/13 11:37:51;;;;;;;20.37;10.33;;;9.20;41.20;;;;;;5052042;28;20457;-71
2022/03/13 11:40:29;;;;;;;15.27;10.40;;;9.10;40.70;;;;;;5051994;28;20591;-71
2022/03/13 11:43:07;;;;;;;15.33;10.40;;;9.20;40.10;;;;;;5052035;28;20449;-71
2022/03/13 11:45:35;;;;;;;21.03;11.03;;;9.30;39.80;;;;;;5051786;28;20978;-69
2022/03/13 11:48:50;;;;;;;12.50;9.20;;;9.30;40.30;;;;;;5051901;28;20445;-72
2022/03/13 11:51:30;;;;;;;12.30;7.33;;;9.40;39.30;;;;;;5051809;28;20473;-73
2022/03/13 11:53:58;;;;;;;9.80;5.93;;;9.50;36.90;;;;;;5051606;28;20514;-72
2022/03/13 11:56:29;;;;;;;8.90;4.97;;;9.40;36.40;;;;;;5051595;28;20485;-72
2022/03/13 11:58:59;;;;;;;9.30;6.13;;;9.30;35.00;;;;;;5051213;28;20454;-75
2022/03/13 12:01:34;;;;;;;13.40;6.60;;;9.30;34.40;;;;;;5051734;28;20466;-76
2022/03/13 12:04:27;;;;;;;7.73;5.43;;;9.50;35.10;;;;;;5053228;28;20544;-74
2022/03/13 12:06:56;;;;;;;7.37;4.83;;;9.70;34.90;;;;;;5058617;28;20525;-75
2022/03/13 12:09:44;;;;;;;8.43;5.17;;;9.60;33.60;;;;;;5057460;28;20458;-75
2022/03/13 12:12:15;;;;;;;7.70;4.90;;;9.30;34.20;;;;;;5058725;28;20977;-74
2022/03/13 12:15:01;;;;;;;9.50;4.47;;;9.30;32.90;;;;;;5052617;28;20478;-76
2022/03/13 12:17:30;;;;;;;6.43;4.50;;;9.10;33.40;;;;;;5051623;28;20462;-75
2022/03/13 12:19:59;;;;;;;7.17;5.03;;;9.00;33.70;;;;;;5051543;28;20462;-76
2022/03/13 12:22:30;;;;;;;10.83;4.43;;;9.00;35.00;;;;;;5051724;28;20465;-76
2022/03/13 12:24:59;;;;;;;7.70;5.30;;;8.90;33.30;;;;;;5051068;28;20504;-76
2022/03/13 12:27:27;;;;;;;8.43;5.13;;;8.60;34.20;;;;;;5051302;28;20480;-74
2022/03/13 12:29:56;;;;;;;7.80;4.47;;;8.80;33.20;;;;;;5051453;28;20797;-76
2022/03/13 12:32:29;;;;;;;7.70;4.87;;;9.00;33.40;;;;;;5051467;28;20450;-74
2022/03/13 12:34:57;;;;;;;7.73;4.37;;;9.20;34.20;;;;;;5051177;28;20573;-75
2022/03/13 12:37:26;;;;;;;10.10;5.60;;;9.40;34.60;;;;;;5051054;28;20481;-74
2022/03/13 12:39:55;;;;;;;8.47;4.97;;;9.50;34.40;;;;;;5051244;28;20458;-76
2022/03/13 12:42:23;;;;;;;6.63;4.27;;;9.50;34.00;;;;;;5051174;28;20453;-76